createdAt,value
2019-03-05T00:03:01.850Z,2.90
2019-03-05T00:08:09.440Z,3.28
2019-03-05T00:13:17.137Z,2.99
2019-03-05T00:18:24.781Z,2.84
2019-03-05T00:23:32.395Z,3.24
2019-03-05T00:28:39.979Z,3.17
2019-03-05T00:33:47.649Z,3.13
2019-03-05T00:38:55.230Z,2.93
2019-03-05T00:44:02.949Z,3.22
2019-03-05T00:49:10.578Z,3.22
2019-03-05T00:54:18.203Z,2.89
2019-03-05T00:59:25.778Z,3.29
2019-03-05T01:04:33.394Z,3.02
2019-03-05T01:09:41.033Z,2.97
2019-03-05T01:14:48.745Z,3.15
2019-03-05T01:19:56.386Z,3.09
2019-03-05T01:25:03.996Z,3.10
2019-03-05T01:30:11.619Z,3.40
2019-03-05T01:35:19.321Z,2.92
2019-03-05T01:40:26.935Z,2.81
2019-03-05T01:45:34.577Z,3.02
2019-03-05T01:50:42.163Z,3.02
2019-03-05T01:55:49.834Z,2.57
2019-03-05T02:00:57.407Z,2.64
2019-03-05T02:06:05.117Z,2.73
2019-03-05T02:11:12.744Z,2.59
2019-03-05T02:16:20.513Z,2.18
2019-03-05T02:21:28.114Z,2.32
2019-03-05T02:26:35.830Z,2.04
2019-03-05T02:31:43.463Z,2.23
2019-03-05T02:36:51.083Z,2.30
2019-03-05T02:41:58.705Z,2.52
2019-03-05T02:47:06.348Z,2.29
2019-03-05T02:52:13.941Z,2.49
2019-03-05T02:57:21.616Z,2.41
2019-03-05T03:02:29.244Z,2.45
2019-03-05T03:07:36.917Z,2.59
2019-03-05T03:12:44.519Z,2.37
2019-03-05T03:17:52.188Z,2.59
2019-03-05T03:22:59.808Z,2.59
2019-03-05T03:28:07.497Z,2.54
2019-03-05T03:33:15.130Z,2.59
2019-03-05T03:38:22.754Z,2.43
2019-03-05T03:43:30.356Z,2.52
2019-03-05T03:48:37.987Z,2.66
2019-03-05T03:53:45.574Z,2.79
2019-03-05T03:58:53.293Z,2.84
2019-03-05T04:04:00.915Z,2.68
2019-03-05T04:09:08.580Z,2.78
2019-03-05T04:14:16.180Z,2.58
2019-03-05T04:19:23.913Z,2.70
2019-03-05T04:24:31.525Z,2.45
2019-03-05T04:29:39.160Z,2.48
2019-03-05T04:34:46.793Z,2.34
2019-03-05T04:39:54.430Z,2.67
2019-03-05T04:45:02.048Z,2.67
2019-03-05T04:50:09.711Z,2.62
2019-03-05T04:55:17.321Z,2.39
2019-03-05T05:00:25.018Z,2.51
2019-03-05T05:05:32.626Z,2.46
2019-03-05T05:10:40.289Z,2.50
2019-03-05T05:15:47.904Z,2.65
2019-03-05T05:20:55.572Z,2.59
2019-03-05T05:26:03.179Z,2.62
2019-03-05T05:31:10.797Z,2.72
2019-03-05T05:36:18.394Z,2.76
2019-03-05T05:41:26.041Z,2.68
2019-03-05T05:46:33.634Z,2.61
2019-03-05T05:51:41.336Z,2.70
2019-03-05T05:56:48.970Z,2.63
2019-03-05T06:01:56.629Z,2.73
2019-03-05T06:07:04.275Z,2.44
2019-03-05T06:12:11.942Z,2.37
2019-03-05T06:17:19.526Z,2.30
2019-03-05T06:22:27.191Z,2.46
2019-03-05T06:27:34.807Z,2.32
2019-03-05T06:32:42.482Z,2.42
2019-03-05T06:37:50.076Z,2.40
2019-03-05T06:42:57.758Z,2.55
2019-03-05T06:48:05.380Z,2.47
2019-03-05T06:53:13.130Z,2.77
2019-03-05T06:58:20.684Z,2.44
2019-03-05T07:03:28.461Z,2.70
2019-03-05T07:08:36.060Z,2.69
2019-03-05T07:13:43.729Z,2.37
2019-03-05T07:18:51.362Z,2.57
2019-03-05T07:23:59.123Z,2.19
2019-03-05T07:29:06.756Z,2.25
2019-03-05T07:34:14.419Z,2.16
2019-03-05T07:39:22.057Z,2.36
2019-03-05T07:44:29.888Z,2.65
2019-03-05T07:49:43.939Z,2.68
2019-03-05T07:54:44.620Z,2.83
2019-03-05T07:59:52.206Z,2.79
2019-03-05T08:04:59.874Z,3.12
2019-03-05T08:10:07.489Z,2.84
2019-03-05T08:15:15.140Z,3.38
2019-03-05T08:20:22.767Z,3.14
2019-03-05T08:25:30.578Z,3.15
2019-03-05T08:30:38.190Z,3.41
2019-03-05T08:35:45.861Z,3.56
2019-03-05T08:40:53.502Z,4.10
2019-03-05T08:46:01.178Z,3.70
2019-03-05T08:51:08.787Z,3.56
2019-03-05T08:56:16.421Z,3.37
2019-03-05T09:01:24.029Z,3.91
2019-03-05T09:06:31.663Z,3.66
2019-03-05T09:11:39.294Z,3.39
2019-03-05T09:16:46.963Z,3.13
2019-03-05T09:21:54.560Z,6.02
2019-03-05T09:27:02.202Z,3.18
2019-03-05T09:32:09.837Z,3.28
2019-03-05T09:37:17.544Z,3.14
2019-03-05T09:42:25.151Z,3.24
2019-03-05T09:47:33.145Z,2.93
